Time;durP1;ratioP1;P1;durP2;ratioP2;P2;SDS_P1;SDS_P2;PMS_P1;PMS_P2;Temp;Humidity;BMP_temperature;BMP_pressure;BME280_temperature;BME280_humidity;BME280_pressure;Samples;Min_cycle;Max_cycle;Signal;HPM_P1;HPM_P2
2023/03/11 00:00:20;;;;;;;12.43;3.80;;;;;;;;;;5036048;28;20044;-39
2023/03/11 00:02:51;;;;;;;8.25;3.10;;;;;;;;;;5031757;28;20115;-38
2023/03/11 00:05:29;;;;;;;9.63;3.70;;;;;;;;;;5036846;28;20037;-38
2023/03/11 00:07:58;;;;;;;8.30;3.10;;;;;;;;;;5035938;28;20489;-38
2023/03/11 00:10:30;;;;;;;8.95;3.13;;;;;;;;;;5032158;28;20109;-38
2023/03/11 00:13:02;;;;;;;11.40;3.65;;;;;;;;;;5031815;28;20486;-38
2023/03/11 00:15:28;;;;;;;7.75;3.17;;;;;;;;;;5036627;28;20436;-38
2023/03/11 00:17:54;;;;;;;8.65;2.80;;;;;;;;;;5030120;28;20552;-38
2023/03/11 00:20:27;;;;;;;7.82;2.85;;;;;;;;;;5037029;28;20116;-38
2023/03/11 00:22:53;;;;;;;7.43;2.95;;;;;;;;;;5032470;28;20053;-38
2023/03/11 00:25:23;;;;;;;7.15;2.67;;;;;;;;;;5035143;28;20061;-38
2023/03/11 00:27:48;;;;;;;9.68;2.75;;;;;;;;;;5032503;28;20516;-38
2023/03/11 00:30:15;;;;;;;9.95;3.55;;;;;;;;;;5030079;28;20033;-38
2023/03/11 00:32:41;;;;;;;15.15;3.50;;;;;;;;;;5033255;28;20036;-38
2023/03/11 00:35:07;;;;;;;11.23;2.97;;;;;;;;;;5036882;28;20022;-38
2023/03/11 00:37:33;;;;;;;8.90;3.38;;;;;;;;;;5032940;28;20053;-38
2023/03/11 00:39:59;;;;;;;12.10;3.00;;;;;;;;;;5032149;28;20389;-38
2023/03/11 00:42:24;;;;;;;7.60;2.53;;;;;;;;;;5030048;28;20029;-38
2023/03/11 00:44:50;;;;;;;12.32;2.92;;;;;;;;;;5034140;28;20020;-38
2023/03/11 00:47:15;;;;;;;7.88;3.10;;;;;;;;;;5033567;28;20052;-38
2023/03/11 00:49:41;;;;;;;9.25;3.65;;;;;;;;;;5035821;28;20049;-39
2023/03/11 00:52:10;;;;;;;9.07;2.13;;;;;;;;;;5029165;28;20505;-38
2023/03/11 00:54:35;;;;;;;8.95;2.53;;;;;;;;;;5038402;28;20500;-39
2023/03/11 00:57:06;;;;;;;8.38;2.75;;;;;;;;;;5033715;28;20037;-37
2023/03/11 00:59:33;;;;;;;13.32;2.40;;;;;;;;;;5033566;28;20091;-38
2023/03/11 01:01:59;;;;;;;6.30;2.17;;;;;;;;;;5028915;28;20044;-38
2023/03/11 01:04:24;;;;;;;7.88;2.20;;;;;;;;;;5035784;28;20033;-38
2023/03/11 01:06:49;;;;;;;9.82;2.88;;;;;;;;;;5030732;28;20037;-39
2023/03/11 01:09:24;;;;;;;6.93;3.10;;;;;;;;;;5030472;28;20408;-38
2023/03/11 01:11:50;;;;;;;8.82;3.47;;;;;;;;;;5032068;28;20065;-40
2023/03/11 01:14:16;;;;;;;7.82;2.83;;;;;;;;;;5030982;28;20363;-38
2023/03/11 01:16:41;;;;;;;8.98;2.88;;;;;;;;;;5032563;28;20087;-40
2023/03/11 01:19:07;;;;;;;6.20;2.40;;;;;;;;;;5035566;28;20029;-38
2023/03/11 01:21:42;;;;;;;9.55;3.55;;;;;;;;;;5030751;28;20123;-38
2023/03/11 01:24:07;;;;;;;6.47;2.63;;;;;;;;;;5031262;28;20032;-38
2023/03/11 01:26:33;;;;;;;9.50;2.30;;;;;;;;;;5037289;28;20052;-38
2023/03/11 01:29:00;;;;;;;6.45;2.60;;;;;;;;;;5024075;28;20085;-38
2023/03/11 01:31:26;;;;;;;6.10;2.22;;;;;;;;;;5032557;28;20040;-38
2023/03/11 01:33:57;;;;;;;5.65;2.28;;;;;;;;;;5031770;28;20033;-38
2023/03/11 01:36:23;;;;;;;6.40;2.47;;;;;;;;;;5032539;28;20046;-38
2023/03/11 01:38:48;;;;;;;8.05;1.88;;;;;;;;;;5027904;28;20108;-38
2023/03/11 01:41:14;;;;;;;5.75;2.05;;;;;;;;;;5025699;28;20377;-38
2023/03/11 01:43:42;;;;;;;6.28;2.10;;;;;;;;;;5034749;28;20049;-38
2023/03/11 01:46:12;;;;;;;5.60;2.33;;;;;;;;;;5035520;28;20117;-38
2023/03/11 01:48:38;;;;;;;9.57;3.97;;;;;;;;;;5032762;28;20108;-38
2023/03/11 01:51:05;;;;;;;9.27;3.38;;;;;;;;;;5030017;28;20025;-38
2023/03/11 01:53:32;;;;;;;9.45;3.45;;;;;;;;;;5030571;28;20442;-38
2023/03/11 01:56:00;;;;;;;9.30;3.13;;;;;;;;;;5026159;28;20097;-39
2023/03/11 01:58:36;;;;;;;10.43;2.95;;;;;;;;;;5031788;28;20029;-38
2023/03/11 02:01:02;;;;;;;13.13;2.97;;;;;;;;;;5028651;28;20025;-39
2023/03/11 02:03:40;;;;;;;11.38;3.25;;;;;;;;;;5032745;28;20025;-38
2023/03/11 02:06:12;;;;;;;9.02;3.28;;;;;;;;;;5028770;28;20055;-38
2023/03/11 02:08:45;;;;;;;8.07;3.05;;;;;;;;;;5026515;28;21366;-38
2023/03/11 02:11:25;;;;;;;8.50;2.90;;;;;;;;;;5030205;28;20075;-38
2023/03/11 02:13:53;;;;;;;13.13;3.75;;;;;;;;;;5033026;28;20109;-39
2023/03/11 02:16:19;;;;;;;9.07;3.38;;;;;;;;;;5039541;28;20053;-39
2023/03/11 02:18:44;;;;;;;7.78;2.95;;;;;;;;;;5034267;28;20071;-40
2023/03/11 02:21:25;;;;;;;14.32;3.92;;;;;;;;;;5032122;28;20071;-39
2023/03/11 02:24:14;;;;;;;6.45;2.95;;;;;;;;;;5033490;28;20096;-38
2023/03/11 02:26:48;;;;;;;10.90;3.50;;;;;;;;;;5032799;28;20041;-41
2023/03/11 02:29:14;;;;;;;10.43;3.33;;;;;;;;;;5029074;28;20171;-38
2023/03/11 02:31:40;;;;;;;9.48;4.18;;;;;;;;;;5036781;28;20128;-38
2023/03/11 02:34:17;;;;;;;6.00;2.67;;;;;;;;;;5038870;28;20029;-39
2023/03/11 02:36:42;;;;;;;9.05;2.38;;;;;;;;;;5034528;28;20040;-38
2023/03/11 02:39:08;;;;;;;7.25;2.50;;;;;;;;;;5034330;28;20022;-38
2023/03/11 02:41:37;;;;;;;10.85;3.10;;;;;;;;;;5030189;28;20620;-38
2023/03/11 02:44:06;;;;;;;6.38;2.50;;;;;;;;;;5033924;28;20025;-42
2023/03/11 02:46:42;;;;;;;8.38;2.88;;;;;;;;;;5039609;28;20053;-38
2023/03/11 02:49:08;;;;;;;9.82;3.30;;;;;;;;;;5035391;28;20029;-38
2023/03/11 02:51:34;;;;;;;5.63;2.70;;;;;;;;;;5038917;28;20041;-38
2023/03/11 02:54:03;;;;;;;8.85;2.55;;;;;;;;;;5034953;28;21830;-38
2023/03/11 02:56:28;;;;;;;6.57;2.75;;;;;;;;;;5035490;28;20132;-38
2023/03/11 02:58:56;;;;;;;7.82;2.92;;;;;;;;;;5031453;28;20113;-38
2023/03/11 03:01:22;;;;;;;10.25;3.00;;;;;;;;;;5031022;28;20080;-38
2023/03/11 03:03:48;;;;;;;6.88;2.47;;;;;;;;;;5033066;28;20049;-38
2023/03/11 03:06:13;;;;;;;6.35;2.20;;;;;;;;;;5033822;28;20438;-39
2023/03/11 03:08:38;;;;;;;7.22;2.55;;;;;;;;;;5036945;28;20056;-38
2023/03/11 03:11:13;;;;;;;7.43;2.38;;;;;;;;;;5030192;28;20440;-38
2023/03/11 03:13:39;;;;;;;10.65;2.45;;;;;;;;;;5031085;28;20045;-38
2023/03/11 03:16:04;;;;;;;7.45;2.60;;;;;;;;;;5035930;28;20037;-38
2023/03/11 03:18:30;;;;;;;7.45;2.25;;;;;;;;;;5035748;28;20026;-38
2023/03/11 03:20:55;;;;;;;8.48;2.78;;;;;;;;;;5030249;28;20458;-38
2023/03/11 03:23:21;;;;;;;7.10;2.78;;;;;;;;;;5041394;28;20103;-38
2023/03/11 03:25:46;;;;;;;6.03;2.47;;;;;;;;;;5031270;28;20036;-39
2023/03/11 03:28:12;;;;;;;7.20;2.45;;;;;;;;;;5034062;28;20045;-38
2023/03/11 03:30:44;;;;;;;6.93;3.05;;;;;;;;;;5032042;28;20056;-38
2023/03/11 03:33:09;;;;;;;6.28;2.17;;;;;;;;;;5033299;28;20033;-38
2023/03/11 03:35:35;;;;;;;8.15;2.58;;;;;;;;;;5035484;28;20380;-38
2023/03/11 03:38:00;;;;;;;7.82;2.05;;;;;;;;;;5037738;28;20039;-38
2023/03/11 03:40:26;;;;;;;9.88;2.60;;;;;;;;;;5037560;28;20465;-38
2023/03/11 03:42:51;;;;;;;7.68;2.45;;;;;;;;;;5035721;28;20041;-38
2023/03/11 03:45:17;;;;;;;7.55;3.03;;;;;;;;;;5037397;28;20032;-40
2023/03/11 03:47:48;;;;;;;8.18;2.70;;;;;;;;;;5035562;28;20053;-38
2023/03/11 03:50:14;;;;;;;10.90;2.63;;;;;;;;;;5025296;28;20120;-38
2023/03/11 03:52:49;;;;;;;6.93;2.10;;;;;;;;;;5033559;28;20561;-38
2023/03/11 03:55:17;;;;;;;5.82;2.28;;;;;;;;;;5032532;28;20021;-38
2023/03/11 03:57:52;;;;;;;7.68;2.55;;;;;;;;;;5035822;28;20045;-38
2023/03/11 04:00:23;;;;;;;8.43;2.78;;;;;;;;;;5030013;28;20036;-38
2023/03/11 04:02:48;;;;;;;7.47;2.50;;;;;;;;;;5037027;28;20042;-38
2023/03/11 04:05:14;;;;;;;9.02;3.63;;;;;;;;;;5037074;28;20029;-38
2023/03/11 04:07:39;;;;;;;7.82;2.03;;;;;;;;;;5034596;28;20067;-38
2023/03/11 04:10:05;;;;;;;6.32;2.00;;;;;;;;;;5033293;28;20466;-38
2023/03/11 04:12:39;;;;;;;10.00;2.63;;;;;;;;;;5036792;28;20033;-38
2023/03/11 04:15:05;;;;;;;8.95;1.77;;;;;;;;;;5033784;28;20034;-38
2023/03/11 04:17:31;;;;;;;6.38;2.60;;;;;;;;;;5036404;28;20037;-39
2023/03/11 04:19:56;;;;;;;10.43;2.22;;;;;;;;;;5034774;28;20506;-38
2023/03/11 04:22:22;;;;;;;7.88;2.45;;;;;;;;;;5033106;28;20069;-37
2023/03/11 04:24:47;;;;;;;8.73;2.50;;;;;;;;;;5040350;28;20025;-38
2023/03/11 04:27:12;;;;;;;8.45;2.28;;;;;;;;;;5034729;28;20053;-38
2023/03/11 04:29:38;;;;;;;7.00;2.13;;;;;;;;;;5038356;28;20029;-38
2023/03/11 04:32:09;;;;;;;9.55;2.15;;;;;;;;;;5035359;28;20464;-38
2023/03/11 04:34:35;;;;;;;7.90;2.15;;;;;;;;;;5032646;28;20032;-38
2023/03/11 04:37:00;;;;;;;8.75;2.45;;;;;;;;;;5035984;28;20516;-38
2023/03/11 04:39:26;;;;;;;8.20;2.17;;;;;;;;;;5036145;28;20065;-38
2023/03/11 04:41:51;;;;;;;4.32;1.90;;;;;;;;;;5033632;28;20044;-38
2023/03/11 04:44:26;;;;;;;9.30;2.28;;;;;;;;;;5033928;28;20393;-38
2023/03/11 04:46:51;;;;;;;8.35;1.83;;;;;;;;;;5029614;28;20044;-38
2023/03/11 04:49:16;;;;;;;6.13;2.38;;;;;;;;;;5038851;28;20358;-38
2023/03/11 04:51:42;;;;;;;5.28;2.17;;;;;;;;;;5031596;28;20063;-38
2023/03/11 04:54:08;;;;;;;5.20;2.13;;;;;;;;;;5032415;28;20053;-39
2023/03/11 04:56:42;;;;;;;6.80;2.15;;;;;;;;;;5030507;28;20140;-38
2023/03/11 04:59:07;;;;;;;11.68;2.75;;;;;;;;;;5035332;28;20112;-38
2023/03/11 05:01:33;;;;;;;5.70;1.98;;;;;;;;;;5030926;28;20644;-38
2023/03/11 05:03:58;;;;;;;8.80;2.42;;;;;;;;;;5027755;28;20034;-38
2023/03/11 05:06:24;;;;;;;6.22;2.10;;;;;;;;;;5031990;28;20444;-39
2023/03/11 05:08:49;;;;;;;10.32;2.67;;;;;;;;;;5035103;28;20055;-38
2023/03/11 05:11:17;;;;;;;5.88;2.20;;;;;;;;;;5031646;28;20568;-38
2023/03/11 05:13:43;;;;;;;6.88;2.65;;;;;;;;;;5028005;28;20549;-38
2023/03/11 05:16:14;;;;;;;8.00;2.22;;;;;;;;;;5029358;28;20112;-38
2023/03/11 05:18:39;;;;;;;6.80;2.40;;;;;;;;;;5033236;28;20379;-38
2023/03/11 05:21:05;;;;;;;7.47;2.35;;;;;;;;;;5032535;28;20034;-38
2023/03/11 05:23:30;;;;;;;6.38;2.22;;;;;;;;;;5027974;28;20108;-38
2023/03/11 05:25:55;;;;;;;8.45;2.40;;;;;;;;;;5037680;28;20028;-39
2023/03/11 05:28:21;;;;;;;5.47;1.95;;;;;;;;;;5036628;28;20434;-38
2023/03/11 05:30:46;;;;;;;9.40;2.60;;;;;;;;;;5030793;28;20029;-38
2023/03/11 05:33:12;;;;;;;8.48;2.60;;;;;;;;;;5032010;28;20048;-38
2023/03/11 05:35:41;;;;;;;5.00;2.15;;;;;;;;;;5034314;28;20021;-38
2023/03/11 05:38:07;;;;;;;10.00;2.17;;;;;;;;;;5033088;28;20378;-39
2023/03/11 05:40:32;;;;;;;8.40;2.38;;;;;;;;;;5033218;28;20084;-38
2023/03/11 05:42:57;;;;;;;8.70;2.25;;;;;;;;;;5028729;28;20041;-38
2023/03/11 05:45:23;;;;;;;5.88;2.05;;;;;;;;;;5033717;28;20025;-38
2023/03/11 05:47:58;;;;;;;7.07;1.85;;;;;;;;;;5033427;28;20091;-38
2023/03/11 05:50:24;;;;;;;9.15;2.10;;;;;;;;;;5033570;28;20025;-38
2023/03/11 05:52:49;;;;;;;5.05;1.92;;;;;;;;;;5028431;28;20047;-38
2023/03/11 05:55:15;;;;;;;5.10;1.90;;;;;;;;;;5029488;28;20029;-38
2023/03/11 05:57:40;;;;;;;4.70;2.00;;;;;;;;;;5034282;28;20078;-38
2023/03/11 06:00:19;;;;;;;6.68;2.35;;;;;;;;;;5029679;28;20037;-38
2023/03/11 06:02:44;;;;;;;7.18;2.00;;;;;;;;;;5031522;28;20136;-38
2023/03/11 06:05:10;;;;;;;9.70;1.98;;;;;;;;;;5033694;28;20104;-38
2023/03/11 06:07:36;;;;;;;10.45;2.95;;;;;;;;;;5032588;28;20064;-38
2023/03/11 06:10:03;;;;;;;9.70;3.63;;;;;;;;;;5035153;28;20025;-38
2023/03/11 06:12:34;;;;;;;6.88;3.83;;;;;;;;;;5033087;28;20494;-38
2023/03/11 06:15:00;;;;;;;12.15;4.38;;;;;;;;;;5029914;28;20069;-38
2023/03/11 06:17:25;;;;;;;10.55;4.40;;;;;;;;;;5027413;28;20049;-38
2023/03/11 06:19:50;;;;;;;9.27;3.53;;;;;;;;;;5028107;28;20463;-38
2023/03/11 06:22:16;;;;;;;11.10;3.33;;;;;;;;;;5035194;28;20069;-38
2023/03/11 06:24:50;;;;;;;10.43;4.13;;;;;;;;;;5034037;28;20047;-38
2023/03/11 06:27:16;;;;;;;10.32;3.95;;;;;;;;;;5033399;28;20037;-38
2023/03/11 06:29:41;;;;;;;10.02;3.38;;;;;;;;;;5036140;28;20370;-39
2023/03/11 06:32:07;;;;;;;11.85;3.60;;;;;;;;;;5028712;28;20061;-38
2023/03/11 06:34:32;;;;;;;10.20;3.20;;;;;;;;;;5031864;28;20048;-38
2023/03/11 06:36:59;;;;;;;15.73;4.00;;;;;;;;;;5030482;28;20493;-39
2023/03/11 06:39:24;;;;;;;12.98;3.72;;;;;;;;;;5033266;28;20477;-38
2023/03/11 06:41:49;;;;;;;11.65;3.58;;;;;;;;;;5034686;28;20100;-39
2023/03/11 06:44:21;;;;;;;13.35;4.05;;;;;;;;;;5032259;28;20037;-38
2023/03/11 06:46:46;;;;;;;13.05;4.40;;;;;;;;;;5037114;28;20052;-38
2023/03/11 06:49:12;;;;;;;12.43;3.88;;;;;;;;;;5026048;28;20018;-38
2023/03/11 06:51:37;;;;;;;6.68;2.70;;;;;;;;;;5032932;28;20049;-38
2023/03/11 06:54:03;;;;;;;9.13;3.05;;;;;;;;;;5025717;28;20035;-38
2023/03/11 06:56:37;;;;;;;3.83;2.08;;;;;;;;;;5034252;28;20045;-38
2023/03/11 06:59:02;;;;;;;10.25;3.55;;;;;;;;;;5030420;28;20036;-38
2023/03/11 07:01:28;;;;;;;8.90;2.47;;;;;;;;;;5034021;28;20401;-38
2023/03/11 07:03:53;;;;;;;9.85;3.00;;;;;;;;;;5034396;28;20034;-38
2023/03/11 07:06:22;;;;;;;6.05;2.70;;;;;;;;;;5032318;28;20048;-38
2023/03/11 07:08:49;;;;;;;12.93;2.97;;;;;;;;;;5036683;28;20076;-38
2023/03/11 07:11:14;;;;;;;17.48;4.10;;;;;;;;;;5030257;28;20025;-38
2023/03/11 07:13:40;;;;;;;11.23;3.97;;;;;;;;;;5034910;28;20408;-38
2023/03/11 07:16:17;;;;;;;12.55;4.47;;;;;;;;;;5032652;28;20051;-39
2023/03/11 07:18:45;;;;;;;14.10;3.78;;;;;;;;;;5038862;28;20060;-39
2023/03/11 07:21:14;;;;;;;11.40;3.30;;;;;;;;;;5028832;28;20422;-38
2023/03/11 07:23:39;;;;;;;12.48;5.55;;;;;;;;;;5023303;28;20025;-38
2023/03/11 07:26:07;;;;;;;13.98;4.30;;;;;;;;;;5022751;28;20013;-38
2023/03/11 07:28:33;;;;;;;15.27;5.53;;;;;;;;;;5028647;28;20037;-38
2023/03/11 07:30:58;;;;;;;12.27;4.93;;;;;;;;;;5030307;28;20060;-38
2023/03/11 07:33:33;;;;;;;13.77;5.28;;;;;;;;;;5019909;28;20083;-38
2023/03/11 07:35:58;;;;;;;16.77;4.88;;;;;;;;;;5034183;28;20025;-39
2023/03/11 07:38:23;;;;;;;10.88;4.13;;;;;;;;;;5032409;28;20390;-38
2023/03/11 07:40:57;;;;;;;16.27;4.82;;;;;;;;;;5021708;28;20022;-38
2023/03/11 07:43:22;;;;;;;13.95;3.72;;;;;;;;;;5032835;28;20042;-38
2023/03/11 07:45:49;;;;;;;23.63;4.47;;;;;;;;;;5023783;28;20088;-38
2023/03/11 07:48:14;;;;;;;11.98;4.00;;;;;;;;;;5027467;28;20056;-38
2023/03/11 07:50:39;;;;;;;9.25;4.50;;;;;;;;;;5025498;28;20033;-38
2023/03/11 07:53:11;;;;;;;19.13;7.10;;;;;;;;;;5023657;28;20119;-38
2023/03/11 07:55:36;;;;;;;11.25;4.65;;;;;;;;;;5025214;28;20040;-38
2023/03/11 07:58:07;;;;;;;14.73;4.00;;;;;;;;;;5026416;28;20052;-38
2023/03/11 08:00:33;;;;;;;13.75;4.20;;;;;;;;;;5020383;28;20099;-38
2023/03/11 08:02:58;;;;;;;18.25;4.07;;;;;;;;;;5013967;28;20037;-39
2023/03/11 08:05:26;;;;;;;13.40;3.65;;;;;;;;;;5029879;28;20104;-38
2023/03/11 08:07:52;;;;;;;10.18;3.30;;;;;;;;;;5021911;28;20041;-38
2023/03/11 08:10:26;;;;;;;12.25;3.28;;;;;;;;;;5026383;28;20037;-38
2023/03/11 08:12:51;;;;;;;10.52;3.53;;;;;;;;;;5017906;28;20049;-39
2023/03/11 08:15:17;;;;;;;11.48;3.15;;;;;;;;;;5024732;28;20709;-38
2023/03/11 08:17:42;;;;;;;13.43;3.90;;;;;;;;;;5028122;28;20057;-39
2023/03/11 08:20:08;;;;;;;16.48;4.00;;;;;;;;;;5024348;28;20030;-39
2023/03/11 08:22:34;;;;;;;14.13;4.03;;;;;;;;;;5030470;28;20160;-39
2023/03/11 08:24:59;;;;;;;11.55;3.75;;;;;;;;;;5033248;28;20541;-38
2023/03/11 08:27:27;;;;;;;10.82;3.83;;;;;;;;;;5030455;28;20030;-38
2023/03/11 08:29:59;;;;;;;10.63;3.78;;;;;;;;;;5038555;28;20021;-38
2023/03/11 08:32:24;;;;;;;14.15;4.07;;;;;;;;;;5033238;28;20439;-40
2023/03/11 08:34:49;;;;;;;7.68;2.85;;;;;;;;;;5034998;28;20065;-38
2023/03/11 08:37:21;;;;;;;12.27;3.38;;;;;;;;;;5027628;28;20564;-38
2023/03/11 08:39:46;;;;;;;11.27;3.33;;;;;;;;;;5028817;28;20449;-38
2023/03/11 08:42:16;;;;;;;18.27;3.05;;;;;;;;;;5026344;28;20446;-38
2023/03/11 08:44:42;;;;;;;10.30;3.40;;;;;;;;;;5015551;28;20033;-39
2023/03/11 08:47:07;;;;;;;12.70;3.58;;;;;;;;;;5024508;28;20091;-38
2023/03/11 08:49:33;;;;;;;14.88;3.65;;;;;;;;;;5026858;28;20044;-39
2023/03/11 08:51:59;;;;;;;13.15;4.55;;;;;;;;;;5029660;28;20501;-38
2023/03/11 08:54:34;;;;;;;13.75;4.30;;;;;;;;;;5031277;28;20090;-38
2023/03/11 08:57:01;;;;;;;15.82;4.22;;;;;;;;;;5035499;28;20044;-39
2023/03/11 08:59:28;;;;;;;12.85;3.80;;;;;;;;;;5033601;28;20057;-38
2023/03/11 09:01:54;;;;;;;12.60;4.03;;;;;;;;;;5032049;28;20091;-39
2023/03/11 09:04:20;;;;;;;17.45;3.90;;;;;;;;;;5037312;28;20033;-39
2023/03/11 09:06:57;;;;;;;13.25;4.35;;;;;;;;;;5029673;28;20094;-38
2023/03/11 09:09:22;;;;;;;11.38;3.97;;;;;;;;;;5031381;28;20029;-41
2023/03/11 09:11:48;;;;;;;15.38;4.50;;;;;;;;;;5030497;28;20045;-40
2023/03/11 09:14:13;;;;;;;8.88;3.63;;;;;;;;;;5033075;28;20087;-38
2023/03/11 09:16:39;;;;;;;16.60;3.90;;;;;;;;;;5029480;28;20037;-38
2023/03/11 09:19:06;;;;;;;11.10;4.10;;;;;;;;;;5037438;28;20108;-38
2023/03/11 09:21:35;;;;;;;12.30;3.42;;;;;;;;;;5033107;28;20708;-38
2023/03/11 09:24:03;;;;;;;11.75;3.33;;;;;;;;;;5031059;28;20030;-39
2023/03/11 09:26:31;;;;;;;7.53;3.35;;;;;;;;;;5036622;28;20451;-39
2023/03/11 09:29:02;;;;;;;6.72;3.30;;;;;;;;;;5029458;28;20028;-38
2023/03/11 09:31:31;;;;;;;8.30;3.13;;;;;;;;;;5025655;28;20132;-38
2023/03/11 09:33:56;;;;;;;10.25;3.53;;;;;;;;;;5037285;28;20037;-38
2023/03/11 09:36:22;;;;;;;9.02;2.75;;;;;;;;;;5027715;28;20041;-38
2023/03/11 09:38:48;;;;;;;6.50;3.17;;;;;;;;;;5034585;28;20390;-39
2023/03/11 09:41:16;;;;;;;9.50;2.75;;;;;;;;;;5028538;28;20033;-38
2023/03/11 09:44:19;;;;;;;7.85;2.67;;;;;;;;;;5032108;28;20108;-39
2023/03/11 09:47:21;;;;;;;5.88;2.30;;;;;;;;;;5025985;28;20386;-38
2023/03/11 09:50:13;;;;;;;8.85;2.85;;;;;;;;;;5029542;28;21590;-38
2023/03/11 09:52:46;;;;;;;12.27;3.45;;;;;;;;;;5028977;28;20038;-38
2023/03/11 09:55:33;;;;;;;7.50;3.13;;;;;;;;;;5028014;28;20033;-38
2023/03/11 09:58:12;;;;;;;8.77;2.75;;;;;;;;;;5028795;28;20048;-39
2023/03/11 10:00:38;;;;;;;10.93;3.42;;;;;;;;;;5029212;28;20074;-39
2023/03/11 10:03:18;;;;;;;5.07;2.80;;;;;;;;;;5032711;28;20468;-38
2023/03/11 10:05:44;;;;;;;9.27;4.63;;;;;;;;;;5027899;28;20044;-40
2023/03/11 10:08:20;;;;;;;4.20;2.35;;;;;;;;;;5024808;28;20033;-39
2023/03/11 10:10:58;;;;;;;13.27;3.45;;;;;;;;;;5029178;28;20036;-39
2023/03/11 10:13:51;;;;;;;5.18;2.53;;;;;;;;;;5026015;28;20041;-39
2023/03/11 10:16:34;;;;;;;2.80;1.45;;;;;;;;;;5023965;28;20355;-39
2023/03/11 10:19:11;;;;;;;2.83;1.83;;;;;;;;;;5026310;28;20037;-39
2023/03/11 10:22:03;;;;;;;2.17;1.48;;;;;;;;;;5033595;28;20045;-39
2023/03/11 10:25:04;;;;;;;2.63;1.10;;;;;;;;;;5028490;28;20032;-39
2023/03/11 10:28:04;;;;;;;2.63;0.90;;;;;;;;;;5024333;28;20072;-39
2023/03/11 10:30:33;;;;;;;0.88;0.73;;;;;;;;;;5025270;28;20040;-39
2023/03/11 10:33:20;;;;;;;1.67;0.70;;;;;;;;;;5027407;28;20037;-39
2023/03/11 10:35:51;;;;;;;1.65;0.63;;;;;;;;;;5029500;28;20108;-39
2023/03/11 10:38:41;;;;;;;0.32;0.30;;;;;;;;;;5036555;28;20043;-39
2023/03/11 10:41:54;;;;;;;0.80;0.50;;;;;;;;;;5026964;28;20042;-39
2023/03/11 10:44:25;;;;;;;1.13;0.50;;;;;;;;;;5029205;28;20575;-39
2023/03/11 10:46:51;;;;;;;0.23;0.23;;;;;;;;;;5031549;28;20179;-39
2023/03/11 10:49:17;;;;;;;0.30;0.30;;;;;;;;;;5038905;28;20116;-39
2023/03/11 10:51:51;;;;;;;0.40;0.40;;;;;;;;;;5037301;28;20045;-39
2023/03/11 10:54:25;;;;;;;0.70;0.40;;;;;;;;;;5035495;28;20026;-39
2023/03/11 10:57:04;;;;;;;1.25;0.65;;;;;;;;;;5030527;28;20561;-40
2023/03/11 10:59:45;;;;;;;0.88;0.40;;;;;;;;;;5027623;28;20037;-39
2023/03/11 11:02:44;;;;;;;1.20;0.80;;;;;;;;;;5032911;28;20084;-39
2023/03/11 11:05:21;;;;;;;0.77;0.65;;;;;;;;;;5036033;28;20035;-39
2023/03/11 11:08:15;;;;;;;4.15;0.70;;;;;;;;;;5032093;28;20062;-41
2023/03/11 11:11:01;;;;;;;1.70;0.52;;;;;;;;;;5037649;28;20033;-39
2023/03/11 11:13:35;;;;;;;0.60;0.50;;;;;;;;;;5030976;28;20053;-41
2023/03/11 11:16:19;;;;;;;1.77;0.75;;;;;;;;;;5036282;28;20089;-41
2023/03/11 11:18:53;;;;;;;0.60;0.60;;;;;;;;;;5037083;28;20524;-41
2023/03/11 11:21:42;;;;;;;0.95;0.75;;;;;;;;;;5022162;28;20102;-42
2023/03/11 11:24:32;;;;;;;1.02;0.60;;;;;;;;;;5027122;28;20095;-39
2023/03/11 11:27:10;;;;;;;8.10;0.80;;;;;;;;;;5025703;28;20124;-43
2023/03/11 11:29:36;;;;;;;2.00;0.70;;;;;;;;;;5021084;28;20036;-42
2023/03/11 11:32:13;;;;;;;0.73;0.60;;;;;;;;;;5026511;28;20130;-41
2023/03/11 11:34:40;;;;;;;0.98;0.60;;;;;;;;;;5029330;28;20521;-41
2023/03/11 11:37:11;;;;;;;1.00;0.95;;;;;;;;;;5022524;28;20034;-41
2023/03/11 11:39:51;;;;;;;1.48;1.35;;;;;;;;;;5026842;28;20537;-40
2023/03/11 11:42:19;;;;;;;1.88;1.58;;;;;;;;;;5014902;28;20037;-40
2023/03/11 11:44:49;;;;;;;1.38;1.15;;;;;;;;;;5018705;28;20043;-39
2023/03/11 11:47:20;;;;;;;2.17;1.67;;;;;;;;;;5020489;28;20094;-44
2023/03/11 11:49:55;;;;;;;1.27;1.00;;;;;;;;;;5027999;28;22235;-39
2023/03/11 11:52:29;;;;;;;1.35;1.10;;;;;;;;;;5028064;28;20505;-45
2023/03/11 11:55:02;;;;;;;1.08;0.98;;;;;;;;;;5029134;28;20036;-41
2023/03/11 11:57:28;;;;;;;2.33;1.50;;;;;;;;;;5019614;28;20041;-43
2023/03/11 11:59:54;;;;;;;2.85;1.38;;;;;;;;;;5022508;28;20041;-40
2023/03/11 12:02:40;;;;;;;2.38;1.45;;;;;;;;;;5027202;28;20090;-40
2023/03/11 12:05:20;;;;;;;2.92;1.05;;;;;;;;;;5024642;28;20033;-42
2023/03/11 12:07:58;;;;;;;2.22;1.20;;;;;;;;;;5024006;28;20048;-40
2023/03/11 12:10:46;;;;;;;2.33;1.25;;;;;;;;;;5037597;28;20040;-40
2023/03/11 12:13:14;;;;;;;2.75;0.90;;;;;;;;;;5041334;28;20044;-45
2023/03/11 12:15:39;;;;;;;3.90;1.25;;;;;;;;;;5030410;28;20021;-40
2023/03/11 12:18:14;;;;;;;1.77;1.20;;;;;;;;;;5031786;28;20382;-39
2023/03/11 12:20:48;;;;;;;1.85;1.60;;;;;;;;;;5026616;28;20057;-41
2023/03/11 12:23:35;;;;;;;1.85;1.50;;;;;;;;;;5025620;28;20064;-39
2023/03/11 12:26:02;;;;;;;1.73;1.38;;;;;;;;;;5031544;28;20036;-45
2023/03/11 12:28:55;;;;;;;2.38;1.27;;;;;;;;;;5022282;28;20048;-39
2023/03/11 12:31:23;;;;;;;3.00;1.95;;;;;;;;;;5024226;28;20397;-40
2023/03/11 12:34:02;;;;;;;2.38;1.40;;;;;;;;;;5017836;28;20044;-41
2023/03/11 12:36:33;;;;;;;9.82;1.98;;;;;;;;;;5020605;28;20033;-39
2023/03/11 12:39:20;;;;;;;2.65;1.42;;;;;;;;;;5025394;28;20429;-39
2023/03/11 12:41:46;;;;;;;3.80;1.35;;;;;;;;;;5031413;28;20053;-41
2023/03/11 12:44:29;;;;;;;2.33;1.45;;;;;;;;;;5031071;28;20045;-41
2023/03/11 12:46:58;;;;;;;0.93;0.85;;;;;;;;;;5031889;28;20092;-40
2023/03/11 12:49:44;;;;;;;1.95;0.90;;;;;;;;;;5022244;28;20375;-42
2023/03/11 12:52:12;;;;;;;0.60;0.60;;;;;;;;;;5025837;28;20053;-39
2023/03/11 12:54:39;;;;;;;0.63;0.60;;;;;;;;;;5025683;28;20036;-39
2023/03/11 12:57:18;;;;;;;0.70;0.50;;;;;;;;;;5024359;28;20050;-44
2023/03/11 13:00:06;;;;;;;0.95;0.60;;;;;;;;;;5022001;28;20559;-40
2023/03/11 13:02:59;;;;;;;6.43;0.40;;;;;;;;;;5021227;28;20049;-45
2023/03/11 13:05:54;;;;;;;0.73;0.40;;;;;;;;;;5027402;28;20026;-42
2023/03/11 13:08:27;;;;;;;0.30;0.30;;;;;;;;;;4963871;28;20047;-39
2023/03/11 13:10:56;;;;;;;1.00;0.65;;;;;;;;;;4969452;28;20053;-40
2023/03/11 13:13:38;;;;;;;1.80;0.32;;;;;;;;;;4961670;28;20046;-40
2023/03/11 13:16:15;;;;;;;1.75;0.50;;;;;;;;;;4962316;28;20128;-40
2023/03/11 13:18:42;;;;;;;1.10;0.60;;;;;;;;;;4960975;28;20113;-39
2023/03/11 13:21:26;;;;;;;1.60;0.47;;;;;;;;;;4963963;28;20035;-42
2023/03/11 13:24:14;;;;;;;1.23;0.40;;;;;;;;;;4961125;28;20093;-45
2023/03/11 13:26:45;;;;;;;1.98;0.50;;;;;;;;;;4969023;28;20563;-41
2023/03/11 13:29:56;;;;;;;0.20;0.20;;;;;;;;;;4970717;28;20058;-39
2023/03/11 13:32:39;;;;;;;0.25;0.25;;;;;;;;;;4890100;29;20063;-39
2023/03/11 13:35:34;;;;;;;0.50;0.20;;;;;;;;;;4893842;29;20039;-39
2023/03/11 13:38:41;;;;;;;0.35;0.35;;;;;;;;;;4883504;29;20069;-41
2023/03/11 13:41:21;;;;;;;0.55;0.40;;;;;;;;;;4887541;29;20033;-40
2023/03/11 13:43:49;;;;;;;1.60;0.45;;;;;;;;;;4895683;29;20056;-42
2023/03/11 13:46:27;;;;;;;0.32;0.20;;;;;;;;;;4943609;28;20976;-41
2023/03/11 13:49:07;;;;;;;1.67;0.60;;;;;;;;;;4950995;28;20109;-45
2023/03/11 13:51:44;;;;;;;3.10;0.50;;;;;;;;;;4949119;28;20456;-41
2023/03/11 13:54:30;;;;;;;3.10;0.40;;;;;;;;;;4949189;28;20109;-41
2023/03/11 13:57:14;;;;;;;0.85;0.80;;;;;;;;;;4946511;28;20662;-39
2023/03/11 13:59:39;;;;;;;6.32;0.80;;;;;;;;;;4951627;28;20046;-42
2023/03/11 14:02:18;;;;;;;2.33;0.40;;;;;;;;;;4949439;28;20064;-40
2023/03/11 14:04:49;;;;;;;4.50;0.52;;;;;;;;;;4955024;28;20031;-40
2023/03/11 14:07:36;;;;;;;0.82;0.25;;;;;;;;;;4956401;28;20079;-40
2023/03/11 14:10:11;;;;;;;2.90;0.40;;;;;;;;;;5020805;28;20077;-40
2023/03/11 14:12:42;;;;;;;1.75;0.32;;;;;;;;;;5030749;28;20064;-40
2023/03/11 14:15:16;;;;;;;1.65;0.47;;;;;;;;;;5026452;28;20029;-41
2023/03/11 14:17:45;;;;;;;0.75;0.40;;;;;;;;;;5028723;28;20040;-41
2023/03/11 14:20:21;;;;;;;0.93;0.32;;;;;;;;;;5031324;28;20088;-40
2023/03/11 14:22:49;;;;;;;2.95;0.50;;;;;;;;;;5036803;28;20041;-45
2023/03/11 14:25:35;;;;;;;1.33;0.47;;;;;;;;;;5029478;28;20035;-42
2023/03/11 14:28:03;;;;;;;7.05;0.57;;;;;;;;;;5021291;28;20059;-39
2023/03/11 14:30:31;;;;;;;1.05;0.28;;;;;;;;;;5029168;28;20398;-39
2023/03/11 14:33:20;;;;;;;3.67;0.52;;;;;;;;;;5028856;28;20121;-39
2023/03/11 14:36:08;;;;;;;2.08;0.50;;;;;;;;;;5026907;28;20033;-40
2023/03/11 14:38:34;;;;;;;3.92;0.70;;;;;;;;;;5024833;28;20049;-39
2023/03/11 14:41:12;;;;;;;2.65;0.70;;;;;;;;;;5036482;28;20026;-39
2023/03/11 14:43:43;;;;;;;5.93;0.40;;;;;;;;;;5034272;28;20041;-42
2023/03/11 14:46:25;;;;;;;4.57;0.53;;;;;;;;;;5033565;28;20071;-39
2023/03/11 14:48:52;;;;;;;3.17;0.80;;;;;;;;;;5029536;28;20036;-38
2023/03/11 14:51:28;;;;;;;3.97;0.68;;;;;;;;;;5029129;28;20490;-39
2023/03/11 14:54:05;;;;;;;1.88;0.30;;;;;;;;;;5032127;28;20033;-40
2023/03/11 14:56:42;;;;;;;2.72;0.40;;;;;;;;;;5037219;28;20038;-42
2023/03/11 14:59:15;;;;;;;2.72;0.50;;;;;;;;;;5031163;28;20037;-39
2023/03/11 15:01:42;;;;;;;1.23;0.20;;;;;;;;;;5029939;28;20038;-39
2023/03/11 15:04:13;;;;;;;1.65;0.70;;;;;;;;;;5039233;28;20024;-39